Time;durP1;ratioP1;P1;durP2;ratioP2;P2;SDS_P1;SDS_P2;PMS_P1;PMS_P2;Temp;Humidity;BMP_temperature;BMP_pressure;BME280_temperature;BME280_humidity;BME280_pressure;Samples;Min_cycle;Max_cycle;Signal;HPM_P1;HPM_P2
2023/07/10 00:01:03;;;;;;;22.93;15.60;;;19.70;99.90;;;;;;5094172;28;20051;-73
2023/07/10 00:03:29;;;;;;;23.53;16.87;;;19.70;99.90;;;;;;5094258;28;20083;-72
2023/07/10 00:05:59;;;;;;;22.33;16.80;;;19.70;99.90;;;;;;5094004;28;20086;-72
2023/07/10 00:08:25;;;;;;;23.97;17.43;;;19.70;99.90;;;;;;5094424;28;20048;-72
2023/07/10 00:10:51;;;;;;;27.87;18.10;;;19.70;99.90;;;;;;5094097;28;20039;-72
2023/07/10 00:13:21;;;;;;;22.70;17.30;;;19.60;99.90;;;;;;5094043;28;20040;-72
2023/07/10 00:15:51;;;;;;;23.77;17.30;;;19.60;99.90;;;;;;5094040;28;20395;-72
2023/07/10 00:18:19;;;;;;;25.17;16.93;;;19.70;99.90;;;;;;5093782;28;20055;-72
2023/07/10 00:20:45;;;;;;;23.93;16.37;;;19.70;99.90;;;;;;5094028;28;20088;-72
2023/07/10 00:23:12;;;;;;;23.73;17.00;;;19.60;99.90;;;;;;5093738;28;20044;-72
2023/07/10 00:25:38;;;;;;;22.10;16.43;;;19.60;99.90;;;;;;5092940;28;20044;-72
2023/07/10 00:28:19;;;;;;;23.60;16.43;;;19.60;99.90;;;;;;5093477;28;20499;-73
2023/07/10 00:30:46;;;;;;;21.93;15.40;;;19.60;99.90;;;;;;5092669;28;20044;-72
2023/07/10 00:33:13;;;;;;;21.07;15.40;;;19.60;99.90;;;;;;5093502;28;20044;-72
2023/07/10 00:35:39;;;;;;;22.63;16.07;;;19.60;99.90;;;;;;5093719;28;20032;-72
2023/07/10 00:38:25;;;;;;;24.47;16.00;;;19.60;99.90;;;;;;5092124;28;20052;-72
2023/07/10 00:40:50;;;;;;;27.27;15.10;;;19.60;99.90;;;;;;5093750;28;20040;-72
2023/07/10 00:43:42;;;;;;;23.43;15.00;;;19.50;99.90;;;;;;5093314;28;20373;-72
2023/07/10 00:46:31;;;;;;;20.77;14.80;;;19.60;99.90;;;;;;5092536;28;20071;-72
2023/07/10 00:49:16;;;;;;;21.17;15.20;;;19.50;99.90;;;;;;5093159;28;20499;-72
2023/07/10 00:51:54;;;;;;;21.13;16.08;;;19.50;99.90;;;;;;5093369;28;20490;-71
2023/07/10 00:54:30;;;;;;;24.97;16.53;;;19.40;99.90;;;;;;5093088;28;20047;-71
2023/07/10 00:56:57;;;;;;;22.47;16.47;;;19.40;99.90;;;;;;5093371;28;20119;-71
2023/07/10 00:59:25;;;;;;;19.33;15.37;;;19.40;99.90;;;;;;5093003;28;20170;-72
2023/07/10 01:02:12;;;;;;;18.83;14.97;;;19.40;99.90;;;;;;5093244;28;20081;-72
2023/07/10 01:04:41;;;;;;;20.10;15.17;;;19.40;99.90;;;;;;5093047;28;20048;-72
2023/07/10 01:07:10;;;;;;;22.00;15.03;;;19.40;99.90;;;;;;5092978;28;20040;-72
2023/07/10 01:09:36;;;;;;;18.47;14.60;;;19.40;99.90;;;;;;5093251;28;20125;-72
2023/07/10 01:12:04;;;;;;;16.10;14.07;;;19.50;99.90;;;;;;5092923;28;20040;-73
2023/07/10 01:14:34;;;;;;;17.93;14.70;;;19.40;99.90;;;;;;5093030;28;20051;-72
2023/07/10 01:17:04;;;;;;;15.87;13.53;;;19.40;99.90;;;;;;5093121;28;20122;-72
2023/07/10 01:19:32;;;;;;;19.17;14.10;;;19.40;99.90;;;;;;5093018;28;20101;-72
2023/07/10 01:21:58;;;;;;;19.27;13.87;;;19.40;99.90;;;;;;5092898;28;20055;-72
2023/07/10 01:24:24;;;;;;;21.13;14.10;;;19.40;99.90;;;;;;5092669;28;20043;-72
2023/07/10 01:26:51;;;;;;;20.13;13.97;;;19.40;99.90;;;;;;5092708;28;20082;-72
2023/07/10 01:29:33;;;;;;;16.53;13.87;;;19.30;99.90;;;;;;5092751;28;20051;-72
2023/07/10 01:32:00;;;;;;;20.03;13.10;;;19.40;99.90;;;;;;5092835;28;20457;-72
2023/07/10 01:34:44;;;;;;;15.50;12.33;;;19.40;99.90;;;;;;5092573;28;20050;-72
2023/07/10 01:37:12;;;;;;;18.27;11.90;;;19.30;99.90;;;;;;5092352;28;20484;-72
2023/07/10 01:39:47;;;;;;;20.30;12.13;;;19.40;99.90;;;;;;5091727;28;20094;-72
2023/07/10 01:42:13;;;;;;;17.43;12.17;;;19.30;99.90;;;;;;5092504;28;20152;-72
2023/07/10 01:44:41;;;;;;;15.63;11.37;;;19.30;99.90;;;;;;5092794;28;20384;-72
2023/07/10 01:47:09;;;;;;;14.10;11.47;;;19.30;99.90;;;;;;5091266;28;20048;-73
2023/07/10 01:49:41;;;;;;;15.33;11.07;;;19.30;99.90;;;;;;5091634;28;20468;-72
2023/07/10 01:52:09;;;;;;;18.17;11.60;;;19.30;99.90;;;;;;5092570;28;20130;-73
2023/07/10 01:54:35;;;;;;;13.33;11.10;;;19.20;99.90;;;;;;5092637;28;20499;-72
2023/07/10 01:57:00;;;;;;;14.43;10.97;;;19.20;99.90;;;;;;5092827;28;20079;-72
2023/07/10 01:59:26;;;;;;;17.37;12.30;;;19.10;99.90;;;;;;5092375;28;20055;-72
2023/07/10 02:01:54;;;;;;;13.93;11.40;;;19.10;99.90;;;;;;5092605;28;20084;-73
2023/07/10 02:04:20;;;;;;;17.20;12.07;;;19.10;99.90;;;;;;5092243;28;20054;-73
2023/07/10 02:06:46;;;;;;;13.23;10.70;;;19.10;99.90;;;;;;5091213;28;20058;-73
2023/07/10 02:09:12;;;;;;;16.47;12.00;;;19.10;99.90;;;;;;5092272;28;20126;-73
2023/07/10 02:11:37;;;;;;;18.77;11.47;;;19.00;99.90;;;;;;5092434;28;20074;-73
2023/07/10 02:14:08;;;;;;;14.20;11.83;;;19.00;99.90;;;;;;5092605;28;20080;-73
2023/07/10 02:16:35;;;;;;;15.07;11.63;;;19.10;99.90;;;;;;5092178;28;20044;-73
2023/07/10 02:19:01;;;;;;;12.77;10.27;;;19.10;99.90;;;;;;5092441;28;20043;-73
2023/07/10 02:21:27;;;;;;;12.00;10.60;;;19.00;99.90;;;;;;5092155;28;20050;-73
2023/07/10 02:23:53;;;;;;;13.33;11.23;;;19.00;99.90;;;;;;5092362;28;20131;-73
2023/07/10 02:26:18;;;;;;;14.37;11.43;;;19.00;99.90;;;;;;5092072;28;20040;-73
2023/07/10 02:28:45;;;;;;;16.67;12.33;;;19.00;99.90;;;;;;5092500;28;20098;-72
2023/07/10 02:31:11;;;;;;;15.17;11.13;;;19.00;99.90;;;;;;5092345;28;20044;-73
2023/07/10 02:33:37;;;;;;;17.23;11.57;;;19.10;99.90;;;;;;5091348;28;20040;-73
2023/07/10 02:36:03;;;;;;;15.17;10.57;;;19.00;99.90;;;;;;5092302;28;20093;-72
2023/07/10 02:38:29;;;;;;;17.13;11.50;;;19.10;99.90;;;;;;5090768;28;20052;-73
2023/07/10 02:40:55;;;;;;;13.07;11.13;;;19.00;99.90;;;;;;5092223;28;20059;-72
2023/07/10 02:43:21;;;;;;;14.23;11.57;;;19.00;99.90;;;;;;5092012;28;20055;-73
2023/07/10 02:45:47;;;;;;;11.97;10.67;;;19.00;99.90;;;;;;5092177;28;20385;-72
2023/07/10 02:48:12;;;;;;;11.97;10.47;;;19.00;99.90;;;;;;5092289;28;20476;-73
2023/07/10 02:50:38;;;;;;;14.07;10.83;;;19.00;99.90;;;;;;5095727;28;20503;-73
2023/07/10 02:53:04;;;;;;;12.67;9.93;;;19.00;99.90;;;;;;5095813;28;20483;-73
2023/07/10 02:55:30;;;;;;;13.10;10.33;;;18.90;99.90;;;;;;5095327;28;20048;-72
2023/07/10 02:57:55;;;;;;;12.10;9.90;;;18.90;99.90;;;;;;5095697;28;20119;-72
2023/07/10 03:00:21;;;;;;;12.93;9.67;;;18.90;99.90;;;;;;5095438;28;20055;-73
2023/07/10 03:02:47;;;;;;;12.40;8.80;;;18.80;99.90;;;;;;5095582;28;20101;-73
2023/07/10 03:05:12;;;;;;;11.50;8.57;;;18.80;99.90;;;;;;5095400;28;20040;-73
2023/07/10 03:07:38;;;;;;;11.60;8.43;;;18.80;99.90;;;;;;5095242;28;20123;-72
2023/07/10 03:10:06;;;;;;;15.50;8.43;;;18.80;99.90;;;;;;5077749;28;20476;-73
2023/07/10 03:12:31;;;;;;;11.40;7.43;;;18.80;99.90;;;;;;5095078;28;20060;-73
2023/07/10 03:14:57;;;;;;;11.10;7.97;;;18.80;99.90;;;;;;5095424;28;20047;-73
2023/07/10 03:17:23;;;;;;;9.63;7.30;;;18.70;99.90;;;;;;5095057;28;20121;-73
2023/07/10 03:19:50;;;;;;;9.90;7.70;;;18.70;99.90;;;;;;5095254;28;20055;-73
2023/07/10 03:22:16;;;;;;;9.80;6.90;;;18.70;99.90;;;;;;5095229;28;20052;-73
2023/07/10 03:24:42;;;;;;;12.50;7.17;;;18.70;99.90;;;;;;5095002;28;20546;-73
2023/07/10 03:27:07;;;;;;;10.10;8.03;;;18.70;99.90;;;;;;5094891;28;20574;-73
2023/07/10 03:29:35;;;;;;;10.70;7.57;;;18.60;99.90;;;;;;5094785;28;20048;-73
2023/07/10 03:32:01;;;;;;;14.47;7.03;;;18.60;99.90;;;;;;5095184;28;20399;-73
2023/07/10 03:34:26;;;;;;;9.33;7.57;;;18.60;99.90;;;;;;5093665;28;20131;-73
2023/07/10 03:36:53;;;;;;;9.93;7.50;;;18.60;99.90;;;;;;5095099;28;20040;-72
2023/07/10 03:39:19;;;;;;;10.30;7.50;;;18.60;99.90;;;;;;5094763;28;20068;-74
2023/07/10 03:41:44;;;;;;;10.77;7.10;;;18.70;99.90;;;;;;5094897;28;20051;-73
2023/07/10 03:44:10;;;;;;;9.40;7.10;;;18.70;99.90;;;;;;5094847;28;20058;-73
2023/07/10 03:46:36;;;;;;;10.03;6.80;;;18.70;99.90;;;;;;5093223;28;20048;-73
2023/07/10 03:49:03;;;;;;;9.57;7.67;;;18.70;99.90;;;;;;5093471;28;20052;-72
2023/07/10 03:51:29;;;;;;;12.10;7.17;;;18.70;99.90;;;;;;5094384;28;20135;-73
2023/07/10 03:53:54;;;;;;;8.20;6.40;;;18.70;99.90;;;;;;5094630;28;20127;-73
2023/07/10 03:56:20;;;;;;;10.43;6.37;;;18.70;99.90;;;;;;5094351;28;20126;-73
2023/07/10 03:58:46;;;;;;;10.13;6.10;;;18.70;99.90;;;;;;5093681;28;20048;-72
2023/07/10 04:01:13;;;;;;;8.73;5.37;;;18.70;99.90;;;;;;5094360;28;20112;-72
2023/07/10 04:03:39;;;;;;;7.50;4.90;;;18.70;99.90;;;;;;5094227;28;20077;-73
2023/07/10 04:06:08;;;;;;;10.20;4.87;;;18.60;99.90;;;;;;5094401;28;20051;-72
2023/07/10 04:08:38;;;;;;;8.23;4.17;;;18.60;99.90;;;;;;5094028;28;20114;-73
2023/07/10 04:11:06;;;;;;;8.43;4.20;;;18.60;99.90;;;;;;5094357;28;20044;-72
2023/07/10 04:13:32;;;;;;;6.57;4.00;;;18.60;99.90;;;;;;5092954;28;20110;-73
2023/07/10 04:16:02;;;;;;;8.13;4.20;;;18.60;99.90;;;;;;5076527;28;20498;-72
2023/07/10 04:18:31;;;;;;;7.03;3.73;;;18.70;99.90;;;;;;5093649;28;20123;-72
2023/07/10 04:20:58;;;;;;;6.37;3.80;;;18.70;99.90;;;;;;5092641;28;20499;-72
2023/07/10 04:23:24;;;;;;;8.60;4.03;;;18.60;99.90;;;;;;5093953;28;20129;-73
2023/07/10 04:25:49;;;;;;;6.30;3.37;;;18.70;99.90;;;;;;5094170;28;20044;-72
2023/07/10 04:28:15;;;;;;;10.03;4.57;;;18.70;99.90;;;;;;5093877;28;20063;-72
2023/07/10 04:30:41;;;;;;;7.47;3.57;;;18.70;99.90;;;;;;5092592;28;20047;-72
2023/07/10 04:33:09;;;;;;;6.83;3.40;;;18.70;99.90;;;;;;5094173;28;20047;-72
2023/07/10 04:35:35;;;;;;;5.73;3.50;;;18.70;99.90;;;;;;5093564;28;20036;-72
2023/07/10 04:38:01;;;;;;;7.73;4.03;;;18.70;99.90;;;;;;5093828;28;20395;-72
2023/07/10 04:40:26;;;;;;;5.87;3.23;;;18.70;99.90;;;;;;5092529;28;20119;-72
2023/07/10 04:42:54;;;;;;;6.87;3.67;;;18.70;99.90;;;;;;5093352;28;20113;-73
2023/07/10 04:45:20;;;;;;;8.60;3.33;;;18.70;99.90;;;;;;5092594;28;20115;-72
2023/07/10 04:47:45;;;;;;;6.77;3.40;;;18.70;99.90;;;;;;5093034;28;20646;-72
2023/07/10 04:50:11;;;;;;;7.93;3.93;;;18.80;99.90;;;;;;5093519;28;20068;-73
2023/07/10 04:52:37;;;;;;;5.70;3.43;;;18.80;99.90;;;;;;5093302;28;20055;-73
2023/07/10 04:55:03;;;;;;;8.53;3.60;;;18.80;99.90;;;;;;5092225;28;20048;-72
2023/07/10 04:57:29;;;;;;;6.17;3.30;;;18.80;99.90;;;;;;5093164;28;20051;-73
2023/07/10 04:59:54;;;;;;;7.07;3.80;;;18.80;99.90;;;;;;5093583;28;20122;-73
2023/07/10 05:02:20;;;;;;;7.00;4.43;;;18.80;99.90;;;;;;5093278;28;20044;-72
2023/07/10 05:04:46;;;;;;;8.80;4.13;;;18.80;99.90;;;;;;5093195;28;20438;-72
2023/07/10 05:07:12;;;;;;;7.47;4.00;;;18.90;99.90;;;;;;5093462;28;20056;-73
2023/07/10 05:09:37;;;;;;;6.93;3.80;;;18.90;99.90;;;;;;5091729;28;20078;-73
2023/07/10 05:12:04;;;;;;;7.50;4.00;;;18.90;99.90;;;;;;5092680;28;20499;-72
2023/07/10 05:14:29;;;;;;;6.00;3.40;;;19.00;99.90;;;;;;5092897;28;20070;-74
2023/07/10 05:16:55;;;;;;;7.70;3.87;;;19.10;99.90;;;;;;5093266;28;20032;-73
2023/07/10 05:19:21;;;;;;;7.90;3.53;;;19.20;99.90;;;;;;5093251;28;20056;-73
2023/07/10 05:21:47;;;;;;;7.43;3.83;;;19.30;99.90;;;;;;5093080;28;20047;-73
2023/07/10 05:24:13;;;;;;;8.83;4.10;;;19.30;99.90;;;;;;5092824;28;20079;-73
2023/07/10 05:26:39;;;;;;;6.77;3.73;;;19.40;99.90;;;;;;5092737;28;20447;-73
2023/07/10 05:29:05;;;;;;;5.20;3.33;;;19.40;99.90;;;;;;5091161;28;20466;-73
2023/07/10 05:31:31;;;;;;;8.33;3.90;;;19.40;99.90;;;;;;5091695;28;20052;-72
2023/07/10 05:33:56;;;;;;;6.63;3.57;;;19.40;99.90;;;;;;5092805;28;20044;-73
2023/07/10 05:36:22;;;;;;;7.80;3.27;;;19.40;99.90;;;;;;5075107;28;20464;-72
2023/07/10 05:38:48;;;;;;;7.93;3.60;;;19.50;99.90;;;;;;5091615;28;20489;-73
2023/07/10 05:41:16;;;;;;;6.37;3.40;;;19.50;99.90;;;;;;5091654;28;20048;-73
2023/07/10 05:43:41;;;;;;;7.63;3.30;;;19.60;99.90;;;;;;5092538;28;20055;-72
2023/07/10 05:46:07;;;;;;;8.10;3.60;;;19.70;99.90;;;;;;5091697;28;20044;-72
2023/07/10 05:48:33;;;;;;;8.30;3.37;;;19.90;99.90;;;;;;5092570;28;20472;-74
2023/07/10 05:50:59;;;;;;;7.10;3.23;;;20.00;99.90;;;;;;5091533;28;20460;-72
2023/07/10 05:53:26;;;;;;;7.07;3.30;;;20.10;99.90;;;;;;5092676;28;20131;-72
2023/07/10 05:55:53;;;;;;;7.33;3.10;;;20.50;99.90;;;;;;5092487;28;20040;-73
2023/07/10 05:58:21;;;;;;;6.57;3.43;;;21.40;99.90;;;;;;5092801;28;20048;-73
2023/07/10 06:00:49;;;;;;;7.03;3.23;;;22.20;99.90;;;;;;5091906;28;20390;-73
2023/07/10 06:03:15;;;;;;;6.77;2.90;;;23.30;99.90;;;;;;5092326;28;20067;-73
2023/07/10 06:05:40;;;;;;;7.47;3.00;;;24.30;99.90;;;;;;5091823;28;20032;-73
2023/07/10 06:08:08;;;;;;;7.13;2.97;;;25.30;99.90;;;;;;5092634;28;20127;-73
2023/07/10 06:10:35;;;;;;;8.10;2.80;;;26.20;99.90;;;;;;5092497;28;20048;-73
2023/07/10 06:13:00;;;;;;;7.70;2.70;;;27.20;99.90;;;;;;5092449;28;20044;-73
2023/07/10 06:15:26;;;;;;;8.33;3.03;;;27.90;99.90;;;;;;5092691;28;20472;-73
2023/07/10 06:17:52;;;;;;;6.33;2.50;;;28.60;99.90;;;;;;5092205;28;20086;-73
2023/07/10 06:20:18;;;;;;;5.60;2.30;;;29.10;99.90;;;;;;5092709;28;20395;-71
2023/07/10 06:22:44;;;;;;;6.50;2.47;;;29.50;99.90;;;;;;5092233;28;20048;-74
2023/07/10 06:25:10;;;;;;;6.82;2.80;;;29.90;99.90;;;;;;5094416;28;20070;-73
2023/07/10 06:27:36;;;;;;;6.47;3.05;;;30.40;99.90;;;;;;5095901;28;20056;-73
2023/07/10 06:30:02;;;;;;;7.38;2.78;;;30.80;99.90;;;;;;5095928;28;20058;-73
2023/07/10 06:32:28;;;;;;;7.60;2.72;;;31.20;98.40;;;;;;5096369;28;20036;-73
2023/07/10 06:34:53;;;;;;;5.28;2.45;;;31.60;94.80;;;;;;5095841;28;20116;-74
2023/07/10 06:37:19;;;;;;;6.20;2.88;;;31.90;90.10;;;;;;5095993;28;20044;-73
2023/07/10 06:40:06;;;;;;;8.95;2.80;;;32.30;83.80;;;;;;5096259;28;20040;-74
2023/07/10 06:42:31;;;;;;;6.20;2.63;;;32.60;62.70;;;;;;5096166;28;20488;-73
2023/07/10 06:44:57;;;;;;;6.22;2.55;;;32.90;72.50;;;;;;5095639;28;20129;-73
2023/07/10 06:47:23;;;;;;;7.10;2.58;;;33.20;66.80;;;;;;5095936;28;20173;-73
2023/07/10 06:49:48;;;;;;;7.47;3.10;;;33.30;61.80;;;;;;5095701;28;20395;-73
2023/07/10 06:52:14;;;;;;;11.82;2.92;;;33.10;60.60;;;;;;5095711;28;20522;-73
2023/07/10 06:54:40;;;;;;;5.90;2.30;;;33.10;59.60;;;;;;5095864;28;20124;-75
2023/07/10 06:57:05;;;;;;;6.45;2.50;;;33.20;57.80;;;;;;5094803;28;20054;-70
2023/07/10 06:59:31;;;;;;;7.25;2.65;;;33.40;56.80;;;;;;5095686;28;20101;-68
2023/07/10 07:01:57;;;;;;;7.53;2.78;;;33.60;55.30;;;;;;5095346;28;20056;-68
2023/07/10 07:04:22;;;;;;;8.18;2.67;;;33.90;54.80;;;;;;5094329;28;20458;-69
2023/07/10 07:06:49;;;;;;;7.80;2.83;;;34.10;53.30;;;;;;5094808;28;20044;-69
2023/07/10 07:09:15;;;;;;;7.53;3.00;;;34.10;51.80;;;;;;5095670;28;20412;-70
2023/07/10 07:11:41;;;;;;;8.55;2.90;;;34.40;51.80;;;;;;5095440;28;20058;-67
2023/07/10 07:14:07;;;;;;;6.70;2.90;;;34.50;51.40;;;;;;5095405;28;20040;-68
2023/07/10 07:16:33;;;;;;;8.10;2.78;;;34.70;50.60;;;;;;5095081;28;20115;-70
2023/07/10 07:18:59;;;;;;;8.73;2.35;;;34.80;50.00;;;;;;5094596;28;20036;-70
2023/07/10 07:21:24;;;;;;;8.55;2.80;;;34.90;49.90;;;;;;5094512;28;20044;-69
2023/07/10 07:23:50;;;;;;;7.05;2.58;;;35.20;49.40;;;;;;5094425;28;20101;-71
2023/07/10 07:26:16;;;;;;;6.82;3.03;;;35.20;48.80;;;;;;5094729;28;20508;-70
2023/07/10 07:28:43;;;;;;;6.18;2.30;;;35.40;48.80;;;;;;5094824;28;20499;-71
2023/07/10 07:31:09;;;;;;;7.38;2.97;;;35.70;48.10;;;;;;5094169;28;20036;-70
2023/07/10 07:33:34;;;;;;;8.90;3.67;;;35.90;48.10;;;;;;5094572;28;20104;-72
2023/07/10 07:36:01;;;;;;;7.03;2.65;;;36.20;46.80;;;;;;5093913;28;20399;-70
2023/07/10 07:38:27;;;;;;;9.95;3.30;;;36.20;46.80;;;;;;5094912;28;20079;-69
2023/07/10 07:40:55;;;;;;;8.15;3.22;;;36.40;46.30;;;;;;5094527;28;20110;-72
2023/07/10 07:43:21;;;;;;;8.00;2.58;;;36.50;45.50;;;;;;5094827;28;20400;-70
2023/07/10 07:45:54;;;;;;;7.35;3.10;;;36.30;45.90;;;;;;5093330;28;20040;-70
2023/07/10 07:48:21;;;;;;;8.20;3.15;;;36.40;45.80;;;;;;5094744;28;20044;-69
2023/07/10 07:50:59;;;;;;;7.47;3.13;;;36.50;46.30;;;;;;5094362;28;20173;-72
2023/07/10 07:53:26;;;;;;;7.07;2.78;;;36.40;45.40;;;;;;5094766;28;20052;-68
2023/07/10 07:55:52;;;;;;;7.93;3.00;;;35.70;44.80;;;;;;5092979;28;20445;-67
2023/07/10 07:58:18;;;;;;;7.78;3.47;;;34.90;46.70;;;;;;5094536;28;20055;-68
2023/07/10 08:00:44;;;;;;;7.05;2.88;;;34.40;47.40;;;;;;5094454;28;20048;-66
2023/07/10 08:03:10;;;;;;;9.50;3.22;;;33.50;48.20;;;;;;5093105;28;20396;-67
2023/07/10 08:05:36;;;;;;;8.65;3.45;;;32.80;49.80;;;;;;5094324;28;20036;-68
2023/07/10 08:08:06;;;;;;;9.25;3.25;;;32.10;50.40;;;;;;5093711;28;20458;-67
2023/07/10 08:10:39;;;;;;;6.63;3.05;;;31.80;52.10;;;;;;5094307;28;20055;-70
2023/07/10 08:13:09;;;;;;;8.30;3.78;;;32.20;52.50;;;;;;5094084;28;20051;-72
2023/07/10 08:15:35;;;;;;;9.20;3.30;;;32.90;51.90;;;;;;5094243;28;20487;-71
2023/07/10 08:18:00;;;;;;;9.82;3.08;;;33.50;51.50;;;;;;5093435;28;20047;-69
2023/07/10 08:20:26;;;;;;;7.65;3.42;;;34.20;50.70;;;;;;5094048;28;20044;-71
2023/07/10 08:22:52;;;;;;;8.90;3.45;;;34.80;49.00;;;;;;5092855;28;20078;-67
2023/07/10 08:25:18;;;;;;;7.35;3.30;;;35.10;48.00;;;;;;5093649;28;20044;-72
2023/07/10 08:27:45;;;;;;;7.32;2.90;;;35.10;47.60;;;;;;5092320;28;20052;-70
2023/07/10 08:30:12;;;;;;;7.97;3.20;;;35.10;47.40;;;;;;5093307;28;20134;-70
2023/07/10 08:32:38;;;;;;;10.30;3.83;;;35.00;47.50;;;;;;5093671;28;20446;-71
2023/07/10 08:35:04;;;;;;;12.68;4.00;;;35.00;47.20;;;;;;5092049;28;20048;-73
2023/07/10 08:37:29;;;;;;;10.18;3.55;;;34.90;46.90;;;;;;5093384;28;20067;-70
2023/07/10 08:39:56;;;;;;;11.05;3.60;;;35.10;47.50;;;;;;5093545;28;20477;-69
2023/07/10 08:42:28;;;;;;;8.07;3.78;;;35.10;47.60;;;;;;5093827;28;20051;-71
2023/07/10 08:44:55;;;;;;;10.43;3.88;;;35.10;47.30;;;;;;5093238;28;20104;-71
2023/07/10 08:47:24;;;;;;;10.80;4.28;;;34.40;47.30;;;;;;5092608;28;20044;-70
2023/07/10 08:50:25;;;;;;;9.77;3.53;;;34.00;48.20;;;;;;5093448;28;20044;-71
2023/07/10 08:52:56;;;;;;;9.85;4.18;;;33.70;49.30;;;;;;5088535;28;20056;-71
2023/07/10 08:55:43;;;;;;;8.18;3.40;;;33.40;49.70;;;;;;5075594;28;20056;-73
2023/07/10 08:58:22;;;;;;;10.38;3.60;;;32.80;49.90;;;;;;5092888;28;20135;-70
2023/07/10 09:00:52;;;;;;;7.38;3.88;;;32.20;50.60;;;;;;5092276;28;20059;-70
2023/07/10 09:03:24;;;;;;;9.05;3.28;;;31.80;51.30;;;;;;5092879;28;20048;-69
2023/07/10 09:05:55;;;;;;;10.25;3.72;;;31.30;52.00;;;;;;5092994;28;20079;-67
2023/07/10 09:08:21;;;;;;;11.65;4.00;;;30.80;52.80;;;;;;5093332;28;20052;-67
2023/07/10 09:10:53;;;;;;;10.95;3.53;;;30.60;53.60;;;;;;5092820;28;20076;-69
2023/07/10 09:13:33;;;;;;;8.30;3.53;;;30.30;55.10;;;;;;5090920;28;20490;-67
2023/07/10 09:16:01;;;;;;;9.00;2.95;;;30.10;57.60;;;;;;5092671;28;20066;-73
2023/07/10 09:18:41;;;;;;;12.13;4.13;;;29.90;57.50;;;;;;5093097;28;20123;-68
2023/07/10 09:21:17;;;;;;;10.07;3.60;;;29.50;59.90;;;;;;5091609;28;20553;-68
2023/07/10 09:23:43;;;;;;;12.48;3.38;;;29.20;62.00;;;;;;5093100;28;20093;-69
2023/07/10 09:26:15;;;;;;;14.13;3.90;;;29.10;63.40;;;;;;5092443;28;20043;-73
2023/07/10 09:28:44;;;;;;;9.73;3.17;;;29.00;65.30;;;;;;5092938;28;20079;-70
2023/07/10 09:31:25;;;;;;;10.70;3.70;;;29.00;66.20;;;;;;5092649;28;20087;-69
2023/07/10 09:34:00;;;;;;;8.32;3.67;;;29.00;68.20;;;;;;5092820;28;20044;-69
2023/07/10 09:36:26;;;;;;;11.43;3.53;;;28.90;67.90;;;;;;5093121;28;20047;-69
2023/07/10 09:38:52;;;;;;;11.73;3.50;;;28.80;69.30;;;;;;5092637;28;20055;-69
2023/07/10 09:41:27;;;;;;;11.13;3.13;;;28.70;69.30;;;;;;5091464;28;20044;-69
2023/07/10 09:44:02;;;;;;;11.48;3.58;;;28.60;70.90;;;;;;5092749;28;20097;-69
2023/07/10 09:46:30;;;;;;;10.00;3.50;;;28.40;71.30;;;;;;5092800;28;20109;-69
2023/07/10 09:48:58;;;;;;;9.05;3.40;;;28.20;72.90;;;;;;5092851;28;20406;-70
2023/07/10 09:51:24;;;;;;;12.88;3.40;;;28.10;74.40;;;;;;5091239;28;20117;-69
2023/07/10 09:53:53;;;;;;;8.52;3.50;;;27.80;75.10;;;;;;5092614;28;20059;-69
2023/07/10 09:56:25;;;;;;;10.55;3.50;;;27.60;78.50;;;;;;5092431;28;20126;-69
2023/07/10 09:58:55;;;;;;;10.68;3.45;;;27.60;80.20;;;;;;5095296;28;20051;-68
2023/07/10 10:01:26;;;;;;;9.55;3.33;;;27.60;82.10;;;;;;5096438;28;20051;-69
2023/07/10 10:03:54;;;;;;;10.65;4.03;;;27.60;80.50;;;;;;5096596;28;20044;-69
2023/07/10 10:06:22;;;;;;;7.75;3.00;;;27.60;81.40;;;;;;5096232;28;20051;-68
2023/07/10 10:08:49;;;;;;;8.57;3.05;;;27.60;80.80;;;;;;5096548;28;20043;-68
2023/07/10 10:11:14;;;;;;;11.00;3.50;;;27.60;79.90;;;;;;5096348;28;20132;-68
2023/07/10 10:13:56;;;;;;;10.95;3.40;;;27.60;80.20;;;;;;5096144;28;20115;-70
2023/07/10 10:16:40;;;;;;;11.35;3.25;;;27.50;82.90;;;;;;5096295;28;20040;-71
2023/07/10 10:19:18;;;;;;;9.15;2.95;;;27.40;84.30;;;;;;5096317;28;20044;-72
2023/07/10 10:21:43;;;;;;;9.90;2.97;;;27.30;82.60;;;;;;5096472;28;20499;-71
2023/07/10 10:24:11;;;;;;;9.27;2.85;;;27.10;81.60;;;;;;5096115;28;20048;-72
2023/07/10 10:26:56;;;;;;;8.13;2.95;;;27.00;83.60;;;;;;5095028;28;20036;-71
2023/07/10 10:29:44;;;;;;;;;;;26.90;87.50;;;;;;5096389;28;20052;-71
2023/07/10 10:32:28;;;;;;;11.68;3.20;;;26.90;89.00;;;;;;5085111;28;19977;-72
2023/07/10 10:35:03;;;;;;;7.63;2.88;;;26.90;87.60;;;;;;5096133;28;20477;-71
2023/07/10 10:37:28;;;;;;;;;;;26.80;90.40;;;;;;5096371;28;20189;-71
2023/07/10 10:40:01;;;;;;;11.50;3.20;;;26.90;90.90;;;;;;5096058;28;20018;-71
2023/07/10 10:42:50;;;;;;;10.60;3.13;;;26.80;90.50;;;;;;5095737;28;20040;-72
2023/07/10 10:45:33;;;;;;;10.40;3.10;;;26.70;90.00;;;;;;5094626;28;20206;-70
2023/07/10 10:48:31;;;;;;;10.93;3.15;;;26.60;90.10;;;;;;5096048;28;20052;-71
2023/07/10 10:51:05;;;;;;;11.55;3.05;;;26.50;90.10;;;;;;5095846;28;20040;-71
2023/07/10 10:53:42;;;;;;;9.90;3.13;;;26.40;91.50;;;;;;5095497;28;20480;-70
2023/07/10 10:56:22;;;;;;;9.40;2.88;;;26.20;92.40;;;;;;5095143;28;20507;-71
2023/07/10 10:59:27;;;;;;;10.15;3.30;;;26.20;92.80;;;;;;5095394;28;20074;-71
2023/07/10 11:02:11;;;;;;;10.02;3.10;;;26.20;92.80;;;;;;5095725;28;20082;-70
2023/07/10 11:04:47;;;;;;;11.30;2.83;;;26.20;93.30;;;;;;5095712;28;20059;-71
2023/07/10 11:07:19;;;;;;;9.27;2.90;;;26.20;92.60;;;;;;5095229;28;20080;-72
2023/07/10 11:09:54;;;;;;;8.52;2.72;;;26.10;92.60;;;;;;5094821;28;20372;-70
2023/07/10 11:12:38;;;;;;;10.00;2.97;;;26.10;92.60;;;;;;5094260;28;20047;-71
2023/07/10 11:15:13;;;;;;;;;;;26.10;92.90;;;;;;5094669;28;20087;-72
2023/07/10 11:17:40;;;;;;;7.43;2.28;;;26.00;92.30;;;;;;5095457;28;19920;-71
2023/07/10 11:20:06;;;;;;;8.77;2.78;;;26.00;92.50;;;;;;5095384;28;20062;-72
2023/07/10 11:22:34;;;;;;;9.65;3.22;;;26.10;92.30;;;;;;5094969;28;20054;-71
2023/07/10 11:25:02;;;;;;;12.10;3.30;;;26.10;92.30;;;;;;5094131;28;20117;-71
2023/07/10 11:27:32;;;;;;;8.70;2.67;;;26.10;91.30;;;;;;5094930;28;20113;-72
2023/07/10 11:30:15;;;;;;;10.50;2.67;;;26.10;91.70;;;;;;5095165;28;20495;-70
2023/07/10 11:33:01;;;;;;;9.03;2.43;;;26.10;91.10;;;;;;5095591;28;20092;-71
2023/07/10 11:35:27;;;;;;;11.90;2.50;;;26.00;91.00;;;;;;5094847;28;20049;-71
2023/07/10 11:37:59;;;;;;;7.00;2.03;;;25.90;90.40;;;;;;5095118;28;20048;-71
2023/07/10 11:40:27;;;;;;;8.60;2.70;;;25.80;90.30;;;;;;5094337;28;20391;-71
2023/07/10 11:43:21;;;;;;;10.10;2.90;;;25.90;91.70;;;;;;5093818;28;20056;-72
2023/07/10 11:45:52;;;;;;;7.77;2.40;;;25.70;93.00;;;;;;5094608;28;20040;-72
2023/07/10 11:48:38;;;;;;;9.97;2.50;;;25.70;92.70;;;;;;5094314;28;20044;-70
2023/07/10 11:51:09;;;;;;;5.87;2.60;;;25.70;94.00;;;;;;5094870;28;20097;-70
2023/07/10 11:53:34;;;;;;;8.70;2.93;;;25.60;91.90;;;;;;5094632;28;20052;-70
2023/07/10 11:56:03;;;;;;;11.30;2.43;;;25.50;90.90;;;;;;5094525;28;20062;-70
2023/07/10 11:58:37;;;;;;;8.50;2.90;;;25.40;90.70;;;;;;5093125;28;20055;-73
2023/07/10 12:01:20;;;;;;;8.68;2.20;;;25.40;91.50;;;;;;5094189;28;20385;-70
2023/07/10 12:03:46;;;;;;;10.57;2.33;;;25.40;89.00;;;;;;5094481;28;20063;-73
2023/07/10 12:06:20;;;;;;;8.17;2.20;;;25.30;90.10;;;;;;5094353;28;20070;-72
2023/07/10 12:08:47;;;;;;;6.73;1.80;;;25.30;89.70;;;;;;5094534;28;20043;-73
2023/07/10 12:11:27;;;;;;;7.37;2.07;;;25.30;88.00;;;;;;5094349;28;20827;-73
2023/07/10 12:13:53;;;;;;;6.13;2.20;;;25.30;87.40;;;;;;5094345;28;20048;-73
2023/07/10 12:16:19;;;;;;;9.37;1.70;;;25.20;84.30;;;;;;5094027;28;20109;-74
2023/07/10 12:18:46;;;;;;;6.10;1.70;;;25.20;84.00;;;;;;5094202;28;20044;-70
2023/07/10 12:21:22;;;;;;;5.40;1.60;;;25.20;80.10;;;;;;5093111;28;20096;-70
2023/07/10 12:23:53;;;;;;;4.40;1.60;;;25.10;79.10;;;;;;5094356;28;20044;-71
2023/07/10 12:26:19;;;;;;;5.83;1.80;;;25.10;79.00;;;;;;5093660;28;20039;-71
2023/07/10 12:28:44;;;;;;;5.37;1.90;;;25.00;75.30;;;;;;5094041;28;20062;-71
2023/07/10 12:31:14;;;;;;;8.63;2.10;;;25.00;71.70;;;;;;5094104;28;20080;-70
2023/07/10 12:33:47;;;;;;;7.97;2.23;;;24.90;71.80;;;;;;5093634;28;20043;-70
2023/07/10 12:36:32;;;;;;;4.50;1.63;;;25.00;72.10;;;;;;5094114;28;20075;-70
2023/07/10 12:39:04;;;;;;;8.67;1.90;;;24.90;67.70;;;;;;5092828;28;20126;-72
2023/07/10 12:41:52;;;;;;;7.50;2.00;;;24.90;69.60;;;;;;5093057;28;20044;-72
2023/07/10 12:44:22;;;;;;;8.03;1.83;;;24.90;70.80;;;;;;5092390;28;20048;-73
2023/07/10 12:47:04;;;;;;;9.83;2.53;;;24.90;70.10;;;;;;5093245;28;20032;-71
2023/07/10 12:49:32;;;;;;;5.97;1.97;;;24.90;70.00;;;;;;5091355;28;20040;-71
2023/07/10 12:52:00;;;;;;;5.77;1.47;;;24.90;68.90;;;;;;5093075;28;20080;-71